createdAt,value
2022-12-13T00:01:51.039Z,1.00
2022-12-13T00:04:19.544Z,1.00
2022-12-13T00:06:47.114Z,1.00
2022-12-13T00:09:16.611Z,1.00
2022-12-13T00:11:44.305Z,1.00
2022-12-13T00:14:14.080Z,1.00
2022-12-13T00:16:45.620Z,1.00
2022-12-13T00:19:12.429Z,1.00
2022-12-13T00:21:39.859Z,1.00
2022-12-13T00:24:08.210Z,1.00
2022-12-13T00:26:35.273Z,99.90
2022-12-13T00:29:07.190Z,99.90
2022-12-13T00:34:21.840Z,99.90
2022-12-13T00:36:48.753Z,99.90
2022-12-13T00:39:16.668Z,99.90
2022-12-13T00:41:44.324Z,1.00
2022-12-13T00:44:12.747Z,1.00
2022-12-13T00:46:40.249Z,1.00
2022-12-13T00:49:07.387Z,1.00
2022-12-13T00:51:34.986Z,1.00
2022-12-13T00:54:02.219Z,1.00
2022-12-13T00:56:31.446Z,1.00
2022-12-13T00:58:58.703Z,1.00
2022-12-13T01:01:29.029Z,1.00
2022-12-13T01:03:58.753Z,1.00
2022-12-13T01:06:34.169Z,1.00
2022-12-13T01:09:01.421Z,1.00
2022-12-13T01:11:28.217Z,99.90
2022-12-13T01:13:54.901Z,99.90
2022-12-13T01:16:21.815Z,99.90
2022-12-13T01:18:48.574Z,99.90
2022-12-13T01:21:17.517Z,99.90
2022-12-13T01:23:45.529Z,99.90
2022-12-13T01:26:18.381Z,99.90
2022-12-13T01:28:45.158Z,99.90
2022-12-13T01:31:14.781Z,99.90
2022-12-13T01:33:42.071Z,99.90
2022-12-13T01:36:13.713Z,99.90
2022-12-13T01:38:40.560Z,99.90
2022-12-13T01:41:16.885Z,1.00
2022-12-13T01:43:45.064Z,99.90
2022-12-13T01:46:12.958Z,1.00
2022-12-13T01:48:47.581Z,99.90
2022-12-13T01:51:17.781Z,99.90
2022-12-13T01:53:46.830Z,99.90
2022-12-13T01:56:21.009Z,99.90
2022-12-13T01:58:49.377Z,99.90
2022-12-13T02:01:16.962Z,99.90
2022-12-13T02:03:44.410Z,99.90
2022-12-13T02:06:17.700Z,99.90
2022-12-13T02:08:45.128Z,99.90
2022-12-13T02:11:12.029Z,99.90
2022-12-13T02:13:39.244Z,99.90
2022-12-13T02:16:11.493Z,99.90
2022-12-13T02:19:13.679Z,99.90
2022-12-13T02:22:16.222Z,99.90
2022-12-13T02:25:10.263Z,99.90
2022-12-13T02:28:30.394Z,99.90
2022-12-13T02:30:56.289Z,1.00
2022-12-13T02:33:50.428Z,1.00
2022-12-13T02:36:36.452Z,1.00
2022-12-13T02:39:30.703Z,1.00
2022-12-13T02:42:39.681Z,1.00
2022-12-13T02:45:20.101Z,1.00
2022-12-13T02:47:49.255Z,1.00
2022-12-13T02:50:16.517Z,1.00
2022-12-13T02:52:46.579Z,1.00
2022-12-13T02:55:15.610Z,99.90
2022-12-13T02:57:45.116Z,99.90
2022-12-13T03:00:15.616Z,99.90
2022-12-13T03:02:45.504Z,99.90
2022-12-13T03:05:49.666Z,99.90
2022-12-13T03:08:25.473Z,99.90
2022-12-13T03:11:09.726Z,99.90
2022-12-13T03:13:55.318Z,99.90
2022-12-13T03:16:36.971Z,99.90
2022-12-13T03:19:09.139Z,99.90
2022-12-13T03:21:47.940Z,99.90
2022-12-13T03:24:20.490Z,99.90
2022-12-13T03:26:49.357Z,99.90
2022-12-13T03:29:24.803Z,99.90
2022-12-13T03:31:53.077Z,99.90
2022-12-13T03:34:22.301Z,99.90
2022-12-13T03:36:50.268Z,99.90
2022-12-13T03:39:17.021Z,99.90
2022-12-13T03:41:43.971Z,99.90
2022-12-13T03:44:10.975Z,68.70
2022-12-13T03:46:37.699Z,1.00
2022-12-13T03:49:04.451Z,1.00
2022-12-13T03:51:31.072Z,1.00
2022-12-13T03:53:57.860Z,1.00
2022-12-13T03:56:24.466Z,1.00
2022-12-13T03:58:51.142Z,1.00
2022-12-13T04:01:18.139Z,1.00
2022-12-13T04:03:46.977Z,1.00
2022-12-13T04:06:22.909Z,1.00
2022-12-13T04:08:51.275Z,1.00
2022-12-13T04:11:42.273Z,1.00
2022-12-13T04:14:11.786Z,1.00
2022-12-13T04:16:39.292Z,1.00
2022-12-13T04:19:06.010Z,1.00
2022-12-13T04:21:32.654Z,1.00
2022-12-13T04:24:01.060Z,1.00
2022-12-13T04:26:28.432Z,98.00
2022-12-13T04:28:58.135Z,99.90
2022-12-13T04:31:24.836Z,99.90
2022-12-13T04:33:51.784Z,63.10
2022-12-13T04:36:31.872Z,48.10
2022-12-13T04:39:03.202Z,1.00
2022-12-13T04:41:34.814Z,1.00
2022-12-13T04:44:02.114Z,1.00
2022-12-13T04:46:28.978Z,1.00
2022-12-13T04:48:55.659Z,1.00
2022-12-13T04:51:22.494Z,1.00
2022-12-13T04:53:49.198Z,1.00
2022-12-13T04:56:15.980Z,1.00
2022-12-13T04:58:42.748Z,1.00
2022-12-13T05:01:11.148Z,1.00
2022-12-13T05:03:38.839Z,1.00
2022-12-13T05:06:26.365Z,1.00
2022-12-13T05:08:54.089Z,1.00
2022-12-13T05:11:22.898Z,1.00
2022-12-13T05:13:50.164Z,1.00
2022-12-13T05:16:16.911Z,1.00
2022-12-13T05:18:51.659Z,1.00
2022-12-13T05:21:18.301Z,1.00
2022-12-13T05:23:45.015Z,1.00
2022-12-13T05:26:11.727Z,1.00
2022-12-13T05:28:38.438Z,1.00
2022-12-13T05:31:22.563Z,1.00
2022-12-13T05:33:51.744Z,1.00
2022-12-13T05:36:18.575Z,1.00
2022-12-13T05:38:45.283Z,1.00
2022-12-13T05:41:17.228Z,1.00
2022-12-13T05:43:44.045Z,1.00
2022-12-13T05:46:14.114Z,1.00
2022-12-13T05:48:41.223Z,1.00
2022-12-13T05:51:10.491Z,1.00
2022-12-13T05:53:40.079Z,1.00
2022-12-13T05:56:07.384Z,1.00
2022-12-13T05:58:36.065Z,1.00
2022-12-13T06:01:09.134Z,1.00
2022-12-13T06:03:36.165Z,1.00
2022-12-13T06:06:05.604Z,1.00
2022-12-13T06:08:32.908Z,1.00
2022-12-13T06:11:10.241Z,1.00
2022-12-13T06:13:42.318Z,1.00
2022-12-13T06:16:23.244Z,1.00
2022-12-13T06:18:54.478Z,1.00
2022-12-13T06:21:26.175Z,1.00
2022-12-13T06:23:52.864Z,1.00
2022-12-13T06:26:19.571Z,1.00
2022-12-13T06:28:46.193Z,1.00
2022-12-13T06:31:12.850Z,1.00
2022-12-13T06:33:39.486Z,1.00
2022-12-13T06:36:06.974Z,1.00
2022-12-13T06:38:33.677Z,1.00
2022-12-13T06:41:17.166Z,1.00
2022-12-13T06:43:45.727Z,1.00
2022-12-13T06:46:13.958Z,1.00
2022-12-13T06:48:41.300Z,1.00
2022-12-13T06:51:09.294Z,1.00
2022-12-13T06:53:37.605Z,1.00
2022-12-13T06:56:06.015Z,1.00
2022-12-13T06:58:33.941Z,1.00
2022-12-13T07:01:15.219Z,1.00
2022-12-13T07:03:50.694Z,1.00
2022-12-13T07:06:20.015Z,1.00
2022-12-13T07:08:53.500Z,1.00
2022-12-13T07:11:23.244Z,1.00
2022-12-13T07:13:51.519Z,1.00
2022-12-13T07:16:18.990Z,1.00
2022-12-13T07:18:45.754Z,1.00
2022-12-13T07:21:22.128Z,1.00
2022-12-13T07:23:54.913Z,1.00
2022-12-13T07:26:22.394Z,1.00
2022-12-13T07:28:54.784Z,1.00
2022-12-13T07:31:23.076Z,1.00
2022-12-13T07:33:50.123Z,1.00
2022-12-13T07:36:20.306Z,1.00
2022-12-13T07:38:55.022Z,1.00
2022-12-13T07:41:23.507Z,1.00
2022-12-13T07:43:54.876Z,1.00
2022-12-13T07:46:31.965Z,1.00
2022-12-13T07:49:02.279Z,1.00
2022-12-13T07:51:29.134Z,1.00
2022-12-13T07:53:56.025Z,1.00
2022-12-13T07:56:22.952Z,1.00
2022-12-13T07:58:49.804Z,1.00
2022-12-13T08:01:16.704Z,1.00
2022-12-13T08:03:43.427Z,1.00
2022-12-13T08:06:12.391Z,1.00
2022-12-13T08:08:40.125Z,99.90
2022-12-13T08:11:12.260Z,99.90
2022-12-13T08:13:40.723Z,99.90
2022-12-13T08:16:27.615Z,99.90
2022-12-13T08:19:02.913Z,99.90
2022-12-13T08:24:23.927Z,99.90
2022-12-13T08:26:51.037Z,99.90
2022-12-13T08:29:22.773Z,99.90
2022-12-13T08:32:01.893Z,99.90
2022-12-13T08:34:29.096Z,99.90
2022-12-13T08:37:02.126Z,99.90
2022-12-13T08:39:34.644Z,99.90
2022-12-13T08:42:16.734Z,99.90
2022-12-13T08:44:52.943Z,99.90
2022-12-13T08:47:22.875Z,99.90
2022-12-13T08:49:50.868Z,99.90
2022-12-13T08:52:19.491Z,99.90
2022-12-13T08:54:46.315Z,99.90
2022-12-13T08:57:13.110Z,99.90
2022-12-13T08:59:40.006Z,99.90
2022-12-13T09:02:07.069Z,99.90
2022-12-13T09:04:33.810Z,99.90
2022-12-13T09:07:01.935Z,99.90
2022-12-13T09:09:29.692Z,99.90
2022-12-13T09:11:59.508Z,99.90
2022-12-13T09:14:33.880Z,99.90
2022-12-13T09:17:03.056Z,99.90
2022-12-13T09:19:37.245Z,99.90
2022-12-13T09:22:05.418Z,99.90
2022-12-13T09:24:36.218Z,99.90
2022-12-13T09:27:09.175Z,99.90
2022-12-13T09:29:37.703Z,99.90
2022-12-13T09:32:04.999Z,99.90
2022-12-13T09:34:33.163Z,99.90
2022-12-13T09:37:01.734Z,99.90
2022-12-13T09:39:29.001Z,99.90
2022-12-13T09:42:01.137Z,99.90
2022-12-13T09:44:43.698Z,99.90
2022-12-13T09:47:23.392Z,99.90
2022-12-13T09:49:53.625Z,99.90
2022-12-13T09:52:23.925Z,99.90
2022-12-13T09:54:56.893Z,99.90
2022-12-13T09:57:33.509Z,99.90
2022-12-13T10:00:04.567Z,99.90
2022-12-13T10:02:34.939Z,99.90
2022-12-13T10:05:34.355Z,99.90
2022-12-13T10:08:13.787Z,99.90
2022-12-13T10:10:40.923Z,99.90
2022-12-13T10:13:21.871Z,99.90
2022-12-13T10:15:59.309Z,99.90
2022-12-13T10:18:35.228Z,99.90
2022-12-13T10:21:07.602Z,99.90
2022-12-13T10:23:52.972Z,99.90
2022-12-13T10:26:24.520Z,1.00
2022-12-13T10:29:03.236Z,1.00
2022-12-13T10:31:30.187Z,1.00
2022-12-13T10:33:57.703Z,1.00
2022-12-13T10:36:35.931Z,1.00
2022-12-13T10:39:03.308Z,1.00
2022-12-13T10:41:35.055Z,1.00
2022-12-13T10:44:12.282Z,1.00
2022-12-13T10:46:48.271Z,1.00
2022-12-13T10:49:26.600Z,1.00
2022-12-13T10:51:54.302Z,1.00
2022-12-13T10:54:38.816Z,1.00
2022-12-13T10:57:15.670Z,1.00
2022-12-13T10:59:44.267Z,1.00
2022-12-13T11:02:29.906Z,1.00
2022-12-13T11:04:58.454Z,1.00
2022-12-13T11:07:29.365Z,1.00
2022-12-13T11:10:04.969Z,1.00
2022-12-13T11:12:32.990Z,1.00
2022-12-13T11:15:23.075Z,1.00
2022-12-13T11:18:00.141Z,1.00
2022-12-13T11:20:38.137Z,99.90
2022-12-13T11:23:14.567Z,1.00
2022-12-13T11:25:43.720Z,99.90
2022-12-13T11:28:27.243Z,99.90
2022-12-13T11:31:25.387Z,99.90
2022-12-13T11:34:32.743Z,99.90
2022-12-13T11:37:30.519Z,99.90
2022-12-13T11:40:05.007Z,99.90
2022-12-13T11:42:33.443Z,99.90
2022-12-13T11:45:22.536Z,99.90
2022-12-13T11:47:58.164Z,99.90
2022-12-13T11:50:46.885Z,99.90
2022-12-13T11:53:52.132Z,99.90
2022-12-13T11:56:38.928Z,99.90
2022-12-13T11:59:24.329Z,99.90
2022-12-13T12:02:16.484Z,99.90
2022-12-13T12:05:00.015Z,26.50
2022-12-13T12:07:44.615Z,1.00
2022-12-13T12:10:47.401Z,1.00
2022-12-13T12:13:50.350Z,1.00
2022-12-13T12:16:38.525Z,1.00
2022-12-13T12:19:31.701Z,1.00
2022-12-13T12:22:24.097Z,1.00
2022-12-13T12:24:57.654Z,1.00
2022-12-13T12:27:35.372Z,1.00
2022-12-13T12:30:23.895Z,1.00
2022-12-13T12:33:12.773Z,1.00
2022-12-13T12:36:01.208Z,1.00
2022-12-13T12:39:06.936Z,1.00
2022-12-13T12:41:54.967Z,1.00
2022-12-13T12:44:51.126Z,1.00
2022-12-13T12:48:27.774Z,1.00
2022-12-13T12:50:51.735Z,1.00
2022-12-13T12:53:37.079Z,1.00
2022-12-13T12:56:28.985Z,1.00
2022-12-13T12:59:06.637Z,99.90
2022-12-13T13:02:04.755Z,99.90
2022-12-13T13:04:43.781Z,99.90
2022-12-13T13:07:24.386Z,99.90
2022-12-13T13:09:54.827Z,1.00
2022-12-13T13:12:30.222Z,1.00
2022-12-13T13:14:58.212Z,1.00
2022-12-13T13:17:46.228Z,1.00
2022-12-13T13:20:24.648Z,1.00
2022-12-13T13:23:10.487Z,1.00
2022-12-13T13:26:16.377Z,99.90
2022-12-13T13:28:41.931Z,1.00
2022-12-13T13:31:10.243Z,1.00
2022-12-13T13:33:47.504Z,1.00
2022-12-13T13:36:39.041Z,1.00
2022-12-13T13:39:14.793Z,1.00
2022-12-13T13:42:07.946Z,99.90
2022-12-13T13:44:52.800Z,99.90
2022-12-13T13:47:19.454Z,99.90
2022-12-13T13:50:01.455Z,99.90
2022-12-13T13:53:04.788Z,99.90
2022-12-13T13:56:00.132Z,99.90
2022-12-13T13:58:47.053Z,99.90
2022-12-13T14:01:16.459Z,99.90
2022-12-13T14:04:05.114Z,99.90
2022-12-13T14:07:01.017Z,99.90
2022-12-13T14:10:05.612Z,99.90
2022-12-13T14:12:38.702Z,15.60
2022-12-13T14:15:42.070Z,1.00
2022-12-13T14:18:44.074Z,1.00
2022-12-13T14:21:48.386Z,1.00
2022-12-13T14:24:58.749Z,1.00
2022-12-13T14:27:38.739Z,1.00
2022-12-13T14:30:18.006Z,1.00
2022-12-13T14:32:53.300Z,1.00
2022-12-13T14:35:31.621Z,1.00
2022-12-13T14:38:01.349Z,1.00
2022-12-13T14:40:35.057Z,1.00
2022-12-13T14:43:02.455Z,1.00
2022-12-13T14:45:32.945Z,1.00
2022-12-13T14:48:03.360Z,1.00
2022-12-13T14:50:34.151Z,1.00
2022-12-13T14:53:03.135Z,1.00
2022-12-13T14:55:38.374Z,1.00
2022-12-13T14:58:18.714Z,1.00
2022-12-13T15:00:46.107Z,1.00
2022-12-13T15:03:24.188Z,1.00
2022-12-13T15:06:00.033Z,1.00
2022-12-13T15:08:27.751Z,1.00
2022-12-13T15:10:59.750Z,1.00
2022-12-13T15:13:35.488Z,1.00
2022-12-13T15:16:23.782Z,1.00
2022-12-13T15:19:30.120Z,1.00
2022-12-13T15:22:02.324Z,1.00
2022-12-13T15:24:38.548Z,1.00
2022-12-13T15:27:05.516Z,1.00
2022-12-13T15:29:33.026Z,1.00
2022-12-13T15:32:11.434Z,1.00
2022-12-13T15:34:38.712Z,1.00
2022-12-13T15:37:28.129Z,99.90
2022-12-13T15:40:00.729Z,99.90
2022-12-13T15:42:39.012Z,99.90
2022-12-13T15:45:17.408Z,99.90
2022-12-13T15:47:46.716Z,99.90
2022-12-13T15:50:35.789Z,99.90
2022-12-13T15:53:26.349Z,99.90
2022-12-13T15:55:53.470Z,99.90
2022-12-13T15:58:35.262Z,99.90
2022-12-13T16:01:05.424Z,99.90
2022-12-13T16:03:44.190Z,99.90
2022-12-13T16:06:18.329Z,99.90
2022-12-13T16:08:49.415Z,99.90
2022-12-13T16:11:25.241Z,99.90
2022-12-13T16:13:51.987Z,99.90
2022-12-13T16:16:29.908Z,1.00
2022-12-13T16:19:01.005Z,1.00
2022-12-13T16:21:29.195Z,1.00
2022-12-13T16:23:55.965Z,1.00
2022-12-13T16:26:28.159Z,1.00
2022-12-13T16:28:59.308Z,1.00
2022-12-13T16:31:35.715Z,1.00
2022-12-13T16:34:04.038Z,1.00
2022-12-13T16:36:31.076Z,1.00
2022-12-13T16:38:57.970Z,1.00
2022-12-13T16:41:25.128Z,1.00
2022-12-13T16:44:01.601Z,1.00
2022-12-13T16:47:18.214Z,1.00
2022-12-13T16:49:27.700Z,1.00
2022-12-13T16:51:55.702Z,1.00
2022-12-13T16:54:24.001Z,1.00
2022-12-13T16:56:52.038Z,1.00
2022-12-13T16:59:22.457Z,1.00
2022-12-13T17:01:50.597Z,1.00
2022-12-13T17:04:21.438Z,1.00
2022-12-13T17:06:50.584Z,1.00
2022-12-13T17:09:18.382Z,1.00
2022-12-13T17:11:45.808Z,1.00
2022-12-13T17:14:12.691Z,1.00
2022-12-13T17:16:39.674Z,1.00
2022-12-13T17:19:06.777Z,1.00
2022-12-13T17:21:33.751Z,1.00
2022-12-13T17:24:02.932Z,1.00
2022-12-13T17:26:29.907Z,1.00
2022-12-13T17:28:57.160Z,1.00
2022-12-13T17:31:24.059Z,1.00
2022-12-13T17:33:50.950Z,1.00
2022-12-13T17:36:17.958Z,1.00
2022-12-13T17:38:46.883Z,1.00
2022-12-13T17:41:15.473Z,1.00
2022-12-13T17:43:43.489Z,1.00
2022-12-13T17:46:15.671Z,1.00
2022-12-13T17:48:45.672Z,1.00
2022-12-13T17:51:15.904Z,1.00
2022-12-13T17:53:44.790Z,1.00
2022-12-13T17:56:15.311Z,1.00
2022-12-13T17:58:45.807Z,1.00
2022-12-13T18:01:15.695Z,1.00
2022-12-13T18:03:42.797Z,1.00
2022-12-13T18:06:09.777Z,1.00
2022-12-13T18:08:39.114Z,1.00
2022-12-13T18:13:55.502Z,1.00
2022-12-13T18:16:26.722Z,1.00
2022-12-13T18:18:57.145Z,1.00
2022-12-13T18:21:25.545Z,1.00
2022-12-13T18:23:54.936Z,1.00
2022-12-13T18:26:24.685Z,1.00
2022-12-13T18:28:52.405Z,1.00
2022-12-13T18:31:24.596Z,1.00
2022-12-13T18:33:54.079Z,1.00
2022-12-13T18:36:23.426Z,1.00
2022-12-13T18:38:50.291Z,1.00
2022-12-13T18:41:28.076Z,1.00
2022-12-13T18:44:06.734Z,1.00
2022-12-13T18:46:36.042Z,1.00
2022-12-13T18:49:04.010Z,1.00
2022-12-13T18:51:32.514Z,1.00
2022-12-13T18:54:00.814Z,1.00
2022-12-13T18:56:28.216Z,99.90
2022-12-13T18:58:55.915Z,99.90
2022-12-13T19:02:05.772Z,99.90
2022-12-13T19:04:32.724Z,99.90
2022-12-13T19:06:59.941Z,1.00
2022-12-13T19:09:27.973Z,1.00
2022-12-13T19:11:54.903Z,1.00
2022-12-13T19:14:26.868Z,1.00
2022-12-13T19:16:54.424Z,1.00
2022-12-13T19:19:21.506Z,1.00
2022-12-13T19:21:48.327Z,1.00
2022-12-13T19:24:16.275Z,1.00
2022-12-13T19:26:43.205Z,1.00
2022-12-13T19:29:10.418Z,1.00
2022-12-13T19:31:40.485Z,1.00
2022-12-13T19:34:07.312Z,99.90
2022-12-13T19:36:34.984Z,99.90
2022-12-13T19:39:02.683Z,99.90
2022-12-13T19:41:32.529Z,99.90
2022-12-13T19:44:01.399Z,99.90
2022-12-13T19:46:28.794Z,99.90
2022-12-13T19:48:55.723Z,99.90
2022-12-13T19:51:23.065Z,99.90
2022-12-13T19:53:50.158Z,99.90
2022-12-13T19:56:19.130Z,99.90
2022-12-13T19:58:48.468Z,99.90
2022-12-13T20:01:16.829Z,99.90
2022-12-13T20:03:45.650Z,99.90
2022-12-13T20:06:16.287Z,99.90
2022-12-13T20:08:43.656Z,99.90
2022-12-13T20:11:19.693Z,99.90
2022-12-13T20:13:47.759Z,99.90
2022-12-13T20:16:19.678Z,99.90
2022-12-13T20:18:47.169Z,99.90
2022-12-13T20:21:15.039Z,99.90
2022-12-13T20:23:49.324Z,99.90
2022-12-13T20:26:23.930Z,99.90
2022-12-13T20:28:51.205Z,35.50
2022-12-13T20:31:20.792Z,1.00
2022-12-13T20:33:48.349Z,1.00
2022-12-13T20:36:26.414Z,1.00
2022-12-13T20:39:01.717Z,1.00
2022-12-13T20:41:30.819Z,1.00
2022-12-13T20:43:59.307Z,19.90
2022-12-13T20:46:28.189Z,51.30
2022-12-13T20:48:56.255Z,1.00
2022-12-13T20:51:25.427Z,1.00
2022-12-13T20:53:53.246Z,1.00
2022-12-13T20:56:23.457Z,1.00
2022-12-13T20:58:50.725Z,33.60
2022-12-13T21:01:23.037Z,98.60
2022-12-13T21:03:52.642Z,44.40
2022-12-13T21:06:19.494Z,1.00
2022-12-13T21:08:52.325Z,1.00
2022-12-13T21:11:24.553Z,1.00
2022-12-13T21:13:55.829Z,1.00
2022-12-13T21:16:24.687Z,1.00
2022-12-13T21:18:56.505Z,7.00
2022-12-13T21:21:23.892Z,59.70
2022-12-13T21:23:51.012Z,99.90
2022-12-13T21:26:18.513Z,1.00
2022-12-13T21:28:46.247Z,1.00
2022-12-13T21:31:14.300Z,1.00
2022-12-13T21:33:41.313Z,1.00
2022-12-13T21:36:13.666Z,1.00
2022-12-13T21:38:41.284Z,1.00
2022-12-13T21:41:08.998Z,1.00
2022-12-13T21:43:37.450Z,1.00
2022-12-13T21:46:16.146Z,1.00
2022-12-13T21:48:44.545Z,1.00
2022-12-13T21:51:13.721Z,1.00
2022-12-13T21:53:40.715Z,1.00
2022-12-13T21:56:27.474Z,1.00
2022-12-13T21:59:13.381Z,1.00
2022-12-13T22:02:18.520Z,1.00
2022-12-13T22:04:47.936Z,1.00
2022-12-13T22:07:23.230Z,1.00
2022-12-13T22:09:51.466Z,1.00
2022-12-13T22:12:25.803Z,1.00
2022-12-13T22:14:53.115Z,1.00
2022-12-13T22:17:26.936Z,1.00
2022-12-13T22:19:57.964Z,1.00
2022-12-13T22:22:25.209Z,1.00
2022-12-13T22:24:53.843Z,1.00
2022-12-13T22:27:24.182Z,1.00
2022-12-13T22:29:52.761Z,1.00
2022-12-13T22:32:20.220Z,1.00
2022-12-13T22:34:47.127Z,1.00
2022-12-13T22:37:14.293Z,1.00
2022-12-13T22:39:41.055Z,1.00
2022-12-13T22:42:08.035Z,1.00
2022-12-13T22:44:34.950Z,1.00
2022-12-13T22:47:01.830Z,1.00
2022-12-13T22:49:28.614Z,1.00
2022-12-13T22:51:55.665Z,1.00
2022-12-13T22:54:22.486Z,1.00
2022-12-13T22:56:50.375Z,1.00
2022-12-13T22:59:17.601Z,1.00
2022-12-13T23:01:47.377Z,1.00
2022-12-13T23:04:15.358Z,1.00
2022-12-13T23:06:42.371Z,1.00
2022-12-13T23:09:12.705Z,1.00
2022-12-13T23:11:58.676Z,1.00
2022-12-13T23:14:28.386Z,17.90
2022-12-13T23:16:55.267Z,51.30
2022-12-13T23:22:08.938Z,25.10
2022-12-13T23:24:36.062Z,82.50
2022-12-13T23:27:02.967Z,1.00
2022-12-13T23:29:29.786Z,1.00
2022-12-13T23:31:56.611Z,1.00
2022-12-13T23:34:23.518Z,1.00
2022-12-13T23:36:50.452Z,1.00
2022-12-13T23:39:17.213Z,1.00
2022-12-13T23:41:43.970Z,1.00
2022-12-13T23:44:10.787Z,1.00
2022-12-13T23:46:37.774Z,1.00
2022-12-13T23:49:06.188Z,1.00
2022-12-13T23:51:39.709Z,1.00
2022-12-13T23:54:07.798Z,1.00
2022-12-13T23:56:35.014Z,1.00
2022-12-13T23:59:01.838Z,1.00
